Time;durP1;ratioP1;P1;durP2;ratioP2;P2;SDS_P1;SDS_P2;PMS_P1;PMS_P2;Temp;Humidity;BMP_temperature;BMP_pressure;BME280_temperature;BME280_humidity;BME280_pressure;Samples;Min_cycle;Max_cycle;Signal;HPM_P1;HPM_P2
2024/03/19 00:02:12;;;;;;;;;;;;;;;;;;5096545;28;19939;-71
2024/03/19 00:04:38;;;;;;;;;;;;;;;;;;5077947;28;19908;-71
2024/03/19 00:07:04;;;;;;;;;;;;;;;;;;5096486;28;19908;-71
2024/03/19 00:09:30;;;;;;;;;;;;;;;;;;5096560;28;19912;-71
2024/03/19 00:11:57;;;;;;;;;;;;;;;;;;5095872;28;20396;-71
2024/03/19 00:14:22;;;;;;;;;;;;;;;;;;5096368;28;20387;-71
2024/03/19 00:16:49;;;;;;;;;;;;;;;;;;5096266;28;19913;-71
2024/03/19 00:19:17;;;;;;;;;;;;;;;;;;5077784;28;20280;-71
2024/03/19 00:21:43;;;;;;;;;;;;;;;;;;5096272;28;19962;-71
2024/03/19 00:24:09;;;;;;;;;;;;;;;;;;5077924;28;19912;-72
2024/03/19 00:26:36;;;;;;;;;;;;;;;;;;5077666;28;19916;-71
2024/03/19 00:29:02;;;;;;;;;;;;;;;;;;5096215;28;19957;-72
2024/03/19 00:31:28;;;;;;;;;;;;;;;;;;5095947;28;19924;-72
2024/03/19 00:33:54;;;;;;;;;;;;;;;;;;5095571;28;20322;-72
2024/03/19 00:36:20;;;;;;;;;;;;;;;;;;5095915;28;19908;-71
2024/03/19 00:38:46;;;;;;;;;;;;;;;;;;5077702;28;19934;-71
2024/03/19 00:41:12;;;;;;;;;;;;;;;;;;5077284;28;19934;-72
2024/03/19 00:43:38;;;;;;;;;;;;;;;;;;5095778;28;19916;-72
2024/03/19 00:46:04;;;;;;;;;;;;;;;;;;5096372;28;19915;-73
2024/03/19 00:48:30;;;;;;;;;;;;;;;;;;5095233;28;19912;-72
2024/03/19 00:50:56;;;;;;;;;;;;;;;;;;5095521;28;19908;-71
2024/03/19 00:53:22;;;;;;;;;;;;;;;;;;5076981;28;19912;-72
2024/03/19 00:55:48;;;;;;;;;;;;;;;;;;5095527;28;20016;-71
2024/03/19 00:58:14;;;;;;;;;;;;;;;;;;5095471;28;19930;-72
2024/03/19 01:00:40;;;;;;;;;;;;;;;;;;5095085;28;19977;-71
2024/03/19 01:03:08;;;;;;;;;;;;;;;;;;5095323;28;20269;-71
2024/03/19 01:05:35;;;;;;;;;;;;;;;;;;5095284;28;19908;-71
2024/03/19 01:08:01;;;;;;;;;;;;;;;;;;5095217;28;19912;-71
2024/03/19 01:10:27;;;;;;;;;;;;;;;;;;5095288;28;20336;-71
2024/03/19 01:12:53;;;;;;;;;;;;;;;;;;5095052;28;19970;-73
2024/03/19 01:15:19;;;;;;;;;;;;;;;;;;5094800;28;19939;-71
2024/03/19 01:17:45;;;;;;;;;;;;;;;;;;5095054;28;19908;-71
2024/03/19 01:20:11;;;;;;;;;;;;;;;;;;5095501;28;20396;-71
2024/03/19 01:22:37;;;;;;;;;;;;;;;;;;5094543;28;20012;-71
2024/03/19 01:25:03;;;;;;;;;;;;;;;;;;5094938;28;19908;-71
2024/03/19 01:27:29;;;;;;;;;;;;;;;;;;5094937;28;19909;-71
2024/03/19 01:29:55;;;;;;;;;;;;;;;;;;5094598;28;19998;-71
2024/03/19 01:32:21;;;;;;;;;;;;;;;;;;5094559;28;19924;-71
2024/03/19 01:34:47;;;;;;;;;;;;;;;;;;5095438;28;20371;-71
2024/03/19 01:37:13;;;;;;;;;;;;;;;;;;5076252;28;20252;-71
2024/03/19 01:39:39;;;;;;;;;;;;;;;;;;5094705;28;20276;-72
2024/03/19 01:42:05;;;;;;;;;;;;;;;;;;5094300;28;19909;-71
2024/03/19 01:44:31;;;;;;;;;;;;;;;;;;5076075;28;19951;-72
2024/03/19 01:46:57;;;;;;;;;;;;;;;;;;5094734;28;20001;-72
2024/03/19 01:49:24;;;;;;;;;;;;;;;;;;5094648;28;19912;-72
2024/03/19 01:51:50;;;;;;;;;;;;;;;;;;5094017;28;20019;-72
2024/03/19 01:54:16;;;;;;;;;;;;;;;;;;5094403;28;19946;-72
2024/03/19 01:56:42;;;;;;;;;;;;;;;;;;5094066;28;19908;-72
2024/03/19 01:59:08;;;;;;;;;;;;;;;;;;5076124;28;19912;-72
2024/03/19 02:01:34;;;;;;;;;;;;;;;;;;5094901;28;19908;-72
2024/03/19 02:04:00;;;;;;;;;;;;;;;;;;5075739;28;20386;-72
2024/03/19 02:06:26;;;;;;;;;;;;;;;;;;5094208;28;19908;-72
2024/03/19 02:08:52;;;;;;;;;;;;;;;;;;5094232;28;19931;-72
2024/03/19 02:11:18;;;;;;;;;;;;;;;;;;5093761;28;19973;-72
2024/03/19 02:13:44;;;;;;;;;;;;;;;;;;5094079;28;19908;-72
2024/03/19 02:16:10;;;;;;;;;;;;;;;;;;5094165;28;19931;-72
2024/03/19 02:18:36;;;;;;;;;;;;;;;;;;5093678;28;19955;-72
2024/03/19 02:21:02;;;;;;;;;;;;;;;;;;5094055;28;19908;-72
2024/03/19 02:23:28;;;;;;;;;;;;;;;;;;5094058;28;19954;-72
2024/03/19 02:25:54;;;;;;;;;;;;;;;;;;5093700;28;20359;-72
2024/03/19 02:28:19;;;;;;;;;;;;;;;;;;5093982;28;19912;-72
2024/03/19 02:30:45;;;;;;;;;;;;;;;;;;5093799;28;19954;-72
2024/03/19 02:33:11;;;;;;;;;;;;;;;;;;5093495;28;19923;-71
2024/03/19 02:35:37;;;;;;;;;;;;;;;;;;5093810;28;19908;-71
2024/03/19 02:38:03;;;;;;;;;;;;;;;;;;5093875;28;19909;-71
2024/03/19 02:40:29;;;;;;;;;;;;;;;;;;5093460;28;19909;-71
2024/03/19 02:42:55;;;;;;;;;;;;;;;;;;5093879;28;19915;-71
2024/03/19 02:45:22;;;;;;;;;;;;;;;;;;5093923;28;20396;-71
2024/03/19 02:47:48;;;;;;;;;;;;;;;;;;5093500;28;20006;-71
2024/03/19 02:50:14;;;;;;;;;;;;;;;;;;5093754;28;19962;-71
2024/03/19 02:52:40;;;;;;;;;;;;;;;;;;5094645;28;20013;-71
2024/03/19 02:55:06;;;;;;;;;;;;;;;;;;5097480;28;19908;-70
2024/03/19 02:57:32;;;;;;;;;;;;;;;;;;5097989;28;20385;-71
2024/03/19 02:59:58;;;;;;;;;;;;;;;;;;5097404;28;19908;-71
2024/03/19 03:02:24;;;;;;;;;;;;;;;;;;5097639;28;19912;-71
2024/03/19 03:04:50;;;;;;;;;;;;;;;;;;5079508;28;19930;-72
2024/03/19 03:07:16;;;;;;;;;;;;;;;;;;5097283;28;19912;-72
2024/03/19 03:09:41;;;;;;;;;;;;;;;;;;5097749;28;19908;-72
2024/03/19 03:12:07;;;;;;;;;;;;;;;;;;5097495;28;19923;-72
2024/03/19 03:14:33;;;;;;;;;;;;;;;;;;5078982;28;20404;-71
2024/03/19 03:16:59;;;;;;;;;;;;;;;;;;5097457;28;20275;-72
2024/03/19 03:19:25;;;;;;;;;;;;;;;;;;5097391;28;19930;-72
2024/03/19 03:21:52;;;;;;;;;;;;;;;;;;5096958;28;19912;-72
2024/03/19 03:24:19;;;;;;;;;;;;;;;;;;5079177;28;19998;-72
2024/03/19 03:26:45;;;;;;;;;;;;;;;;;;5097275;28;19991;-72
2024/03/19 03:29:11;;;;;;;;;;;;;;;;;;5078714;28;19958;-73
2024/03/19 03:31:38;;;;;;;;;;;;;;;;;;5097262;28;19970;-72
2024/03/19 03:34:04;;;;;;;;;;;;;;;;;;5097166;28;19953;-72
2024/03/19 03:36:29;;;;;;;;;;;;;;;;;;5096704;28;19908;-72
2024/03/19 03:38:55;;;;;;;;;;;;;;;;;;5078765;28;19908;-72
2024/03/19 03:41:21;;;;;;;;;;;;;;;;;;5097233;28;19912;-72
2024/03/19 03:43:47;;;;;;;;;;;;;;;;;;5096629;28;20287;-72
2024/03/19 03:46:14;;;;;;;;;;;;;;;;;;5096996;28;19908;-73
2024/03/19 03:48:40;;;;;;;;;;;;;;;;;;5096929;28;19908;-71
2024/03/19 03:51:06;;;;;;;;;;;;;;;;;;5096266;28;19915;-71
2024/03/19 03:53:32;;;;;;;;;;;;;;;;;;5096738;28;19908;-71
2024/03/19 03:55:58;;;;;;;;;;;;;;;;;;5096781;28;19908;-71
2024/03/19 03:58:24;;;;;;;;;;;;;;;;;;5096621;28;19915;-71
2024/03/19 04:00:50;;;;;;;;;;;;;;;;;;5096634;28;19953;-71
2024/03/19 04:03:16;;;;;;;;;;;;;;;;;;5096252;28;20385;-72
2024/03/19 04:05:42;;;;;;;;;;;;;;;;;;5096767;28;20287;-72
2024/03/19 04:08:07;;;;;;;;;;;;;;;;;;5096515;28;19912;-72
2024/03/19 04:10:33;;;;;;;;;;;;;;;;;;5096099;28;19909;-72
2024/03/19 04:12:59;;;;;;;;;;;;;;;;;;5096368;28;19958;-73
2024/03/19 04:15:25;;;;;;;;;;;;;;;;;;5096667;28;19908;-72
2024/03/19 04:17:52;;;;;;;;;;;;;;;;;;5095927;28;19909;-72
2024/03/19 04:20:20;;;;;;;;;;;;;;;;;;5096333;28;19990;-72
2024/03/19 04:22:46;;;;;;;;;;;;;;;;;;5096479;28;19908;-71
2024/03/19 04:25:12;;;;;;;;;;;;;;;;;;5095768;28;19915;-71
2024/03/19 04:27:38;;;;;;;;;;;;;;;;;;5095986;28;19908;-71
2024/03/19 04:30:05;;;;;;;;;;;;;;;;;;5077936;28;19908;-71
2024/03/19 04:32:31;;;;;;;;;;;;;;;;;;5095428;28;19931;-71
2024/03/19 04:34:57;;;;;;;;;;;;;;;;;;5096022;28;19908;-71
2024/03/19 04:37:23;;;;;;;;;;;;;;;;;;5095879;28;19961;-72
2024/03/19 04:39:49;;;;;;;;;;;;;;;;;;5095475;28;19912;-71
2024/03/19 04:42:18;;;;;;;;;;;;;;;;;;5095750;28;19930;-72
2024/03/19 04:44:44;;;;;;;;;;;;;;;;;;5095957;28;19912;-71
2024/03/19 04:47:10;;;;;;;;;;;;;;;;;;5095396;28;19915;-72
2024/03/19 04:49:36;;;;;;;;;;;;;;;;;;5095638;28;19912;-71
2024/03/19 04:52:02;;;;;;;;;;;;;;;;;;5095667;28;20360;-71
2024/03/19 04:54:27;;;;;;;;;;;;;;;;;;5095233;28;19909;-71
2024/03/19 04:56:54;;;;;;;;;;;;;;;;;;5095445;28;19909;-71
2024/03/19 04:59:20;;;;;;;;;;;;;;;;;;5095798;28;19908;-71
2024/03/19 05:01:46;;;;;;;;;;;;;;;;;;5095027;28;20486;-71
2024/03/19 05:04:12;;;;;;;;;;;;;;;;;;5095289;28;19924;-71
2024/03/19 05:06:38;;;;;;;;;;;;;;;;;;5094948;28;19931;-72
2024/03/19 05:09:06;;;;;;;;;;;;;;;;;;5095262;28;20010;-71
2024/03/19 05:11:32;;;;;;;;;;;;;;;;;;5095206;28;19916;-72
2024/03/19 05:13:58;;;;;;;;;;;;;;;;;;5076641;28;20291;-71
2024/03/19 05:16:24;;;;;;;;;;;;;;;;;;5094393;28;19995;-71
2024/03/19 05:18:49;;;;;;;;;;;;;;;;;;5095039;28;19915;-71
2024/03/19 05:21:16;;;;;;;;;;;;;;;;;;5094728;28;20351;-71
2024/03/19 05:23:43;;;;;;;;;;;;;;;;;;5094866;28;19938;-71
2024/03/19 05:26:09;;;;;;;;;;;;;;;;;;5094947;28;19908;-71
2024/03/19 05:28:35;;;;;;;;;;;;;;;;;;5094547;28;19908;-72
2024/03/19 05:31:01;;;;;;;;;;;;;;;;;;5073044;28;19954;-72
2024/03/19 05:33:27;;;;;;;;;;;;;;;;;;5074832;28;19908;-71
2024/03/19 05:35:53;;;;;;;;;;;;;;;;;;5074241;28;20434;-72
2024/03/19 05:38:19;;;;;;;;;;;;;;;;;;5074848;28;19916;-70
2024/03/19 05:40:45;;;;;;;;;;;;;;;;;;5074477;28;20368;-70
2024/03/19 05:43:11;;;;;;;;;;;;;;;;;;5073002;28;19912;-72
2024/03/19 05:45:37;;;;;;;;;;;;;;;;;;5073435;28;19942;-72
2024/03/19 05:48:03;;;;;;;;;;;;;;;;;;5074181;28;19999;-72
2024/03/19 05:50:29;;;;;;;;;;;;;;;;;;5072695;28;19916;-72
2024/03/19 05:52:55;;;;;;;;;;;;;;;;;;5072785;28;19923;-72
2024/03/19 05:55:21;;;;;;;;;;;;;;;;;;5072864;28;19920;-72
2024/03/19 05:57:47;;;;;;;;;;;;;;;;;;5073268;28;19908;-72
2024/03/19 06:00:13;;;;;;;;;;;;;;;;;;5073002;28;19932;-72
2024/03/19 06:02:39;;;;;;;;;;;;;;;;;;5073824;28;19972;-72
2024/03/19 06:05:05;;;;;;;;;;;;;;;;;;5073558;28;19950;-72
2024/03/19 06:07:31;;;;;;;;;;;;;;;;;;5072537;28;19913;-72
2024/03/19 06:09:57;;;;;;;;;;;;;;;;;;5072140;28;19908;-72
2024/03/19 06:12:23;;;;;;;;;;;;;;;;;;5072330;28;19924;-71
2024/03/19 06:14:49;;;;;;;;;;;;;;;;;;5073639;28;19909;-70
2024/03/19 06:17:15;;;;;;;;;;;;;;;;;;5073497;28;20003;-71
2024/03/19 06:19:41;;;;;;;;;;;;;;;;;;5071373;28;20001;-80
2024/03/19 06:22:07;;;;;;;;;;;;;;;;;;5075857;28;19908;-82
2024/03/19 06:24:33;;;;;;;;;;;;;;;;;;5076037;28;19915;-85
2024/03/19 06:26:59;;;;;;;;;;;;;;;;;;5072447;28;19912;-87
2024/03/19 06:29:25;;;;;;;;;;;;;;;;;;5075812;28;20384;-87
2024/03/19 06:31:51;;;;;;;;;;;;;;;;;;5070777;28;19973;-71
2024/03/19 06:34:17;;;;;;;;;;;;;;;;;;5071377;28;20014;-68
2024/03/19 06:36:43;;;;;;;;;;;;;;;;;;5072007;28;19913;-70
2024/03/19 06:39:09;;;;;;;;;;;;;;;;;;5071551;28;19958;-70
2024/03/19 06:41:35;;;;;;;;;;;;;;;;;;5060727;28;19958;-68
2024/03/19 06:44:01;;;;;;;;;;;;;;;;;;5066708;28;20334;-70
2024/03/19 06:46:27;;;;;;;;;;;;;;;;;;5059650;28;20893;-68
2024/03/19 06:48:53;;;;;;;;;;;;;;;;;;5068618;28;19947;-68
2024/03/19 06:51:19;;;;;;;;;;;;;;;;;;5060978;28;20385;-69
2024/03/19 06:53:45;;;;;;;;;;;;;;;;;;5066373;28;20468;-71
2024/03/19 06:56:12;;;;;;;;;;;;;;;;;;5052358;28;19909;-70
2024/03/19 06:58:38;;;;;;;;;;;;;;;;;;5065988;28;20003;-68
2024/03/19 07:01:04;;;;;;;;;;;;;;;;;;5071357;28;20369;-68
2024/03/19 07:03:31;;;;;;;;;;;;;;;;;;5072179;28;20315;-69
2024/03/19 07:06:17;;;;;;;;;;;;;;;;;;5064778;28;20446;-71
2024/03/19 07:08:47;;;;;;;;;;;;;;;;;;5070366;28;19912;-70
2024/03/19 07:11:13;;;;;;;;;;;;;;;;;;5058583;28;20376;-70
2024/03/19 07:13:39;;;;;;;;;;;;;;;;;;5060813;28;19927;-70
2024/03/19 07:16:06;;;;;;;;;;;;;;;;;;5069867;28;20003;-70
2024/03/19 07:18:32;;;;;;;;;;;;;;;;;;5068612;28;19960;-69
2024/03/19 07:20:58;;;;;;;;;;;;;;;;;;5059187;28;19924;-70
2024/03/19 07:23:24;;;;;;;;;;;;;;;;;;5064962;28;19908;-71
2024/03/19 07:25:50;;;;;;;;;;;;;;;;;;5067138;28;19958;-69
2024/03/19 07:28:16;;;;;;;;;;;;;;;;;;5068709;28;19908;-70
2024/03/19 07:30:42;;;;;;;;;;;;;;;;;;5071315;28;20415;-71
2024/03/19 07:33:08;;;;;;;;;;;;;;;;;;5090458;28;20384;-71
2024/03/19 07:35:35;;;;;;;;;;;;;;;;;;5070750;28;20373;-71
2024/03/19 07:38:01;;;;;;;;;;;;;;;;;;5091846;28;20288;-71
2024/03/19 07:40:27;;;;;;;;;;;;;;;;;;5094980;28;19908;-66
2024/03/19 07:42:52;;;;;;;;;;;;;;;;;;5092295;28;20374;-69
2024/03/19 07:45:18;;;;;;;;;;;;;;;;;;5074886;28;20364;-71
2024/03/19 07:47:44;;;;;;;;;;;;;;;;;;5075681;28;19966;-68
2024/03/19 07:50:13;;;;;;;;;;;;;;;;;;5075214;28;19913;-69
2024/03/19 07:52:39;;;;;;;;;;;;;;;;;;5075489;28;19923;-72
2024/03/19 07:55:05;;;;;;;;;;;;;;;;;;5090313;28;19908;-71
2024/03/19 07:57:32;;;;;;;;;;;;;;;;;;5089765;28;19908;-69
2024/03/19 08:00:05;;;;;;;;;;;;;;;;;;5073012;28;19958;-68
2024/03/19 08:02:31;;;;;;;;;;;;;;;;;;5091509;28;19912;-68
2024/03/19 08:04:57;;;;;;;;;;;;;;;;;;5089010;28;19919;-67
2024/03/19 08:07:23;;;;;;;;;;;;;;;;;;5092045;28;19912;-68
2024/03/19 08:09:49;;;;;;;;;;;;;;;;;;5091265;28;19919;-68
2024/03/19 08:12:15;;;;;;;;;;;;;;;;;;5063254;28;19985;-67
2024/03/19 08:14:41;;;;;;;;;;;;;;;;;;5092920;28;20007;-68
2024/03/19 08:17:07;;;;;;;;;;;;;;;;;;5093627;28;19908;-70
2024/03/19 08:19:33;;;;;;;;;;;;;;;;;;5094342;28;19985;-69
2024/03/19 08:21:59;;;;;;;;;;;;;;;;;;5095086;28;19912;-70
2024/03/19 08:24:25;;;;;;;;;;;;;;;;;;5095139;28;20280;-70
2024/03/19 08:26:51;;;;;;;;;;;;;;;;;;5094074;28;19918;-68
2024/03/19 08:29:17;;;;;;;;;;;;;;;;;;5095075;28;19909;-68
2024/03/19 08:31:43;;;;;;;;;;;;;;;;;;5094232;28;20684;-67
2024/03/19 08:34:09;;;;;;;;;;;;;;;;;;5089270;28;19935;-68
2024/03/19 08:36:35;;;;;;;;;;;;;;;;;;5074248;28;20291;-69
2024/03/19 08:39:01;;;;;;;;;;;;;;;;;;5087996;28;19912;-68
2024/03/19 08:41:28;;;;;;;;;;;;;;;;;;5094457;28;19916;-69
2024/03/19 08:43:56;;;;;;;;;;;;;;;;;;5093310;28;19958;-67
2024/03/19 08:46:22;;;;;;;;;;;;;;;;;;5084967;28;19916;-68
2024/03/19 08:48:48;;;;;;;;;;;;;;;;;;5091460;28;19934;-70
2024/03/19 08:51:14;;;;;;;;;;;;;;;;;;5085809;28;19920;-70
2024/03/19 08:53:40;;;;;;;;;;;;;;;;;;5077140;28;20408;-69
2024/03/19 08:56:06;;;;;;;;;;;;;;;;;;5063668;28;19973;-72
2024/03/19 08:58:32;;;;;;;;;;;;;;;;;;5076454;28;19909;-70
2024/03/19 09:00:58;;;;;;;;;;;;;;;;;;5075041;28;19922;-70
2024/03/19 09:03:24;;;;;;;;;;;;;;;;;;5053293;28;19909;-67
2024/03/19 09:05:51;;;;;;;;;;;;;;;;;;5069109;28;20376;-70
2024/03/19 09:08:17;;;;;;;;;;;;;;;;;;5071912;28;19909;-69
2024/03/19 09:10:43;;;;;;;;;;;;;;;;;;5053970;28;19909;-68
2024/03/19 09:13:09;;;;;;;;;;;;;;;;;;5090050;28;19916;-70
2024/03/19 09:15:35;;;;;;;;;;;;;;;;;;5092040;28;20288;-70
2024/03/19 09:18:01;;;;;;;;;;;;;;;;;;5091280;28;19966;-71
2024/03/19 09:20:27;;;;;;;;;;;;;;;;;;5083932;28;19908;-71
2024/03/19 09:22:53;;;;;;;;;;;;;;;;;;5058261;28;20376;-71
2024/03/19 09:25:19;;;;;;;;;;;;;;;;;;5065531;28;20007;-72
2024/03/19 09:27:45;;;;;;;;;;;;;;;;;;5086789;28;20024;-69
2024/03/19 09:30:12;;;;;;;;;;;;;;;;;;5091858;28;19920;-71
2024/03/19 09:32:38;;;;;;;;;;;;;;;;;;5085027;28;20334;-71
2024/03/19 09:35:04;;;;;;;;;;;;;;;;;;5084868;28;19919;-70
2024/03/19 09:37:31;;;;;;;;;;;;;;;;;;5090346;28;19955;-70
2024/03/19 09:39:57;;;;;;;;;;;;;;;;;;5067816;28;20327;-72
2024/03/19 09:42:23;;;;;;;;;;;;;;;;;;5072363;28;19909;-74
2024/03/19 09:44:49;;;;;;;;;;;;;;;;;;5071492;28;19909;-69
2024/03/19 09:47:16;;;;;;;;;;;;;;;;;;5054018;28;19959;-69
2024/03/19 09:49:42;;;;;;;;;;;;;;;;;;5092190;28;20021;-69
2024/03/19 09:52:08;;;;;;;;;;;;;;;;;;5087729;28;19929;-72
2024/03/19 09:54:34;;;;;;;;;;;;;;;;;;5066666;28;19951;-69
2024/03/19 09:57:00;;;;;;;;;;;;;;;;;;5068939;28;20018;-69
2024/03/19 09:59:26;;;;;;;;;;;;;;;;;;5069158;28;20416;-70
2024/03/19 10:01:52;;;;;;;;;;;;;;;;;;5053711;28;19909;-70
2024/03/19 10:04:19;;;;;;;;;;;;;;;;;;5078342;28;19908;-69
2024/03/19 10:06:45;;;;;;;;;;;;;;;;;;5074987;28;19908;-69
2024/03/19 10:09:11;;;;;;;;;;;;;;;;;;5072896;28;19916;-71
2024/03/19 10:11:37;;;;;;;;;;;;;;;;;;5092766;28;19913;-71
2024/03/19 10:14:03;;;;;;;;;;;;;;;;;;5091977;28;19931;-73
2024/03/19 10:16:32;;;;;;;;;;;;;;;;;;5072448;28;20360;-70
2024/03/19 10:18:58;;;;;;;;;;;;;;;;;;5090300;28;20287;-71
2024/03/19 10:21:26;;;;;;;;;;;;;;;;;;5091218;28;19908;-72
2024/03/19 10:23:52;;;;;;;;;;;;;;;;;;5092282;28;19912;-72
2024/03/19 10:26:18;;;;;;;;;;;;;;;;;;5065933;28;20553;-74
2024/03/19 10:28:44;;;;;;;;;;;;;;;;;;5074001;28;20319;-72
2024/03/19 10:31:10;;;;;;;;;;;;;;;;;;5089102;28;19912;-72
2024/03/19 10:33:36;;;;;;;;;;;;;;;;;;5088317;28;20019;-69
2024/03/19 10:36:03;;;;;;;;;;;;;;;;;;5070743;28;19920;-71
2024/03/19 10:38:29;;;;;;;;;;;;;;;;;;5070598;28;19954;-72
2024/03/19 10:40:56;;;;;;;;;;;;;;;;;;5089369;28;19947;-72
2024/03/19 10:43:22;;;;;;;;;;;;;;;;;;5091351;28;19908;-72
2024/03/19 10:45:48;;;;;;;;;;;;;;;;;;5090762;28;19916;-73
2024/03/19 10:48:15;;;;;;;;;;;;;;;;;;5092472;28;19913;-74
2024/03/19 10:50:41;;;;;;;;;;;;;;;;;;5079493;28;19981;-72
2024/03/19 10:53:07;;;;;;;;;;;;;;;;;;5087871;28;19919;-73
2024/03/19 10:55:34;;;;;;;;;;;;;;;;;;5091776;28;19908;-75
2024/03/19 10:58:00;;;;;;;;;;;;;;;;;;5065228;28;20288;-72
2024/03/19 11:00:27;;;;;;;;;;;;;;;;;;5070740;28;19915;-72
2024/03/19 11:02:57;;;;;;;;;;;;;;;;;;5088180;28;19922;-73
2024/03/19 11:05:24;;;;;;;;;;;;;;;;;;5087491;28;19908;-72
2024/03/19 11:07:50;;;;;;;;;;;;;;;;;;5089150;28;20380;-70
2024/03/19 11:10:16;;;;;;;;;;;;;;;;;;5069624;28;19926;-73
2024/03/19 11:12:42;;;;;;;;;;;;;;;;;;5071843;28;19916;-71
2024/03/19 11:15:08;;;;;;;;;;;;;;;;;;5074013;28;19908;-71
2024/03/19 11:17:34;;;;;;;;;;;;;;;;;;5094117;28;19912;-68
2024/03/19 11:20:00;;;;;;;;;;;;;;;;;;5092742;28;19916;-73
2024/03/19 11:22:26;;;;;;;;;;;;;;;;;;5075489;28;19938;-71
2024/03/19 11:24:52;;;;;;;;;;;;;;;;;;5093704;28;19908;-73
2024/03/19 11:27:18;;;;;;;;;;;;;;;;;;5077399;28;19991;-71
2024/03/19 11:29:44;;;;;;;;;;;;;;;;;;5053278;28;19939;-71
2024/03/19 11:32:15;;;;;;;;;;;;;;;;;;5070716;28;19967;-72
2024/03/19 11:34:41;;;;;;;;;;;;;;;;;;5087840;28;20012;-71
2024/03/19 11:37:07;;;;;;;;;;;;;;;;;;5088376;28;19942;-72
2024/03/19 11:39:40;;;;;;;;;;;;;;;;;;5086939;28;20018;-73
2024/03/19 11:42:09;;;;;;;;;;;;;;;;;;5091860;28;20376;-73
2024/03/19 11:44:36;;;;;;;;;;;;;;;;;;5087782;28;19909;-72
2024/03/19 11:47:03;;;;;;;;;;;;;;;;;;5072441;28;19986;-71
2024/03/19 11:49:29;;;;;;;;;;;;;;;;;;5093460;28;19915;-75
2024/03/19 11:51:55;;;;;;;;;;;;;;;;;;5091745;28;20364;-74
2024/03/19 11:54:22;;;;;;;;;;;;;;;;;;5077196;28;19909;-75
2024/03/19 11:56:49;;;;;;;;;;;;;;;;;;5056961;28;19913;-75
2024/03/19 11:59:15;;;;;;;;;;;;;;;;;;5060653;28;19916;-75
2024/03/19 12:01:41;;;;;;;;;;;;;;;;;;5065963;28;19966;-75
2024/03/19 12:04:08;;;;;;;;;;;;;;;;;;5095941;28;19915;-75
2024/03/19 12:06:34;;;;;;;;;;;;;;;;;;5077303;28;19908;-74
2024/03/19 12:09:01;;;;;;;;;;;;;;;;;;5094217;28;20057;-75
2024/03/19 12:11:27;;;;;;;;;;;;;;;;;;5094372;28;19954;-75
2024/03/19 12:13:56;;;;;;;;;;;;;;;;;;5088193;28;20015;-75
2024/03/19 12:16:22;;;;;;;;;;;;;;;;;;5092518;28;19915;-75
2024/03/19 12:18:48;;;;;;;;;;;;;;;;;;5093232;28;20370;-75
2024/03/19 12:21:14;;;;;;;;;;;;;;;;;;5093917;28;19908;-75
2024/03/19 12:23:40;;;;;;;;;;;;;;;;;;5090475;28;19912;-75
2024/03/19 12:26:06;;;;;;;;;;;;;;;;;;5087702;28;20399;-76
2024/03/19 12:28:32;;;;;;;;;;;;;;;;;;5092826;28;19908;-74
2024/03/19 12:30:58;;;;;;;;;;;;;;;;;;5093851;28;19916;-75
2024/03/19 12:33:43;;;;;;;;;;;;;;;;;;5093522;28;19939;-75
2024/03/19 12:36:09;;;;;;;;;;;;;;;;;;5095036;28;19908;-77
2024/03/19 12:38:35;;;;;;;;;;;;;;;;;;5093900;28;19908;-75
2024/03/19 12:41:00;;;;;;;;;;;;;;;;;;5094455;28;19915;-75
2024/03/19 12:43:26;;;;;;;;;;;;;;;;;;5076307;28;20431;-75
2024/03/19 12:45:52;;;;;;;;;;;;;;;;;;5094426;28;19915;-75
2024/03/19 12:48:18;;;;;;;;;;;;;;;;;;5094478;28;19915;-75
2024/03/19 12:50:44;;;;;;;;;;;;;;;;;;5093931;28;19953;-74
2024/03/19 12:53:10;;;;;;;;;;;;;;;;;;5076266;28;19915;-76
2024/03/19 12:55:36;;;;;;;;;;;;;;;;;;5095138;28;19909;-76
2024/03/19 12:58:03;;;;;;;;;;;;;;;;;;5092451;28;19912;-72
2024/03/19 13:00:28;;;;;;;;;;;;;;;;;;5092999;28;19915;-72
2024/03/19 13:02:54;;;;;;;;;;;;;;;;;;5076586;28;20287;-72
2024/03/19 13:05:20;;;;;;;;;;;;;;;;;;5076167;28;19972;-73
2024/03/19 13:07:46;;;;;;;;;;;;;;;;;;5093857;28;20420;-72
2024/03/19 13:10:19;;;;;;;;;;;;;;;;;;5090946;28;20387;-71
2024/03/19 13:12:45;;;;;;;;;;;;;;;;;;5075995;28;20395;-74
2024/03/19 13:15:11;;;;;;;;;;;;;;;;;;5094675;28;20283;-72
2024/03/19 13:17:37;;;;;;;;;;;;;;;;;;5094725;28;19915;-70
2024/03/19 13:20:04;;;;;;;;;;;;;;;;;;5094330;28;19914;-73
2024/03/19 13:22:30;;;;;;;;;;;;;;;;;;5094419;28;19916;-71
2024/03/19 13:24:56;;;;;;;;;;;;;;;;;;5093016;28;19923;-73
2024/03/19 13:27:23;;;;;;;;;;;;;;;;;;5092588;28;19913;-75
2024/03/19 13:29:49;;;;;;;;;;;;;;;;;;5093586;28;19915;-72
2024/03/19 13:32:17;;;;;;;;;;;;;;;;;;5085046;28;19932;-72
2024/03/19 13:34:48;;;;;;;;;;;;;;;;;;5093247;28;20395;-69
2024/03/19 13:37:14;;;;;;;;;;;;;;;;;;5072079;28;19916;-72
2024/03/19 13:39:40;;;;;;;;;;;;;;;;;;5093432;28;19938;-70
2024/03/19 13:42:06;;;;;;;;;;;;;;;;;;5092372;28;20306;-71
2024/03/19 13:44:32;;;;;;;;;;;;;;;;;;5093638;28;19931;-71
2024/03/19 13:46:58;;;;;;;;;;;;;;;;;;5093158;28;19908;-71
2024/03/19 13:49:24;;;;;;;;;;;;;;;;;;5093409;28;19981;-72
2024/03/19 13:51:50;;;;;;;;;;;;;;;;;;5093223;28;19916;-72
2024/03/19 13:54:16;;;;;;;;;;;;;;;;;;5074948;28;20590;-73
2024/03/19 13:56:46;;;;;;;;;;;;;;;;;;5094352;28;19909;-69
2024/03/19 13:59:12;;;;;;;;;;;;;;;;;;5093105;28;19908;-71
2024/03/19 14:01:38;;;;;;;;;;;;;;;;;;5092061;28;19908;-71
2024/03/19 14:04:04;;;;;;;;;;;;;;;;;;5093494;28;19951;-71
2024/03/19 14:06:30;;;;;;;;;;;;;;;;;;5075402;28;19998;-71
2024/03/19 14:08:56;;;;;;;;;;;;;;;;;;5074985;28;19970;-71
2024/03/19 14:11:22;;;;;;;;;;;;;;;;;;5093612;28;20606;-72
2024/03/19 14:13:48;;;;;;;;;;;;;;;;;;5093860;28;20286;-71
2024/03/19 14:16:14;;;;;;;;;;;;;;;;;;5093762;28;20444;-71
2024/03/19 14:18:40;;;;;;;;;;;;;;;;;;5094043;28;20356;-71
2024/03/19 14:21:06;;;;;;;;;;;;;;;;;;5094026;28;20361;-70
2024/03/19 14:23:32;;;;;;;;;;;;;;;;;;5093641;28;19909;-71
2024/03/19 14:25:58;;;;;;;;;;;;;;;;;;5093800;28;19914;-70
2024/03/19 14:28:24;;;;;;;;;;;;;;;;;;5093919;28;19933;-70
2024/03/19 14:30:50;;;;;;;;;;;;;;;;;;5093313;28;19908;-71
2024/03/19 14:33:18;;;;;;;;;;;;;;;;;;5075662;28;19916;-71
2024/03/19 14:35:44;;;;;;;;;;;;;;;;;;5075712;28;19908;-71
2024/03/19 14:38:11;;;;;;;;;;;;;;;;;;5093478;28;20000;-72
2024/03/19 14:40:40;;;;;;;;;;;;;;;;;;5093739;28;19954;-70
2024/03/19 14:43:06;;;;;;;;;;;;;;;;;;5093715;28;19915;-71
2024/03/19 14:45:32;;;;;;;;;;;;;;;;;;5093451;28;20360;-71
2024/03/19 14:47:57;;;;;;;;;;;;;;;;;;5094611;28;19931;-71
2024/03/19 14:50:23;;;;;;;;;;;;;;;;;;5097593;28;19912;-71
2024/03/19 14:52:50;;;;;;;;;;;;;;;;;;5097867;28;19959;-71
2024/03/19 14:55:15;;;;;;;;;;;;;;;;;;5098178;28;19943;-71
2024/03/19 14:57:41;;;;;;;;;;;;;;;;;;5097339;28;19958;-71
2024/03/19 15:00:12;;;;;;;;;;;;;;;;;;5097727;28;19908;-71
2024/03/19 15:02:39;;;;;;;;;;;;;;;;;;5097812;28;19953;-70
2024/03/19 15:05:04;;;;;;;;;;;;;;;;;;5079105;28;20053;-71
2024/03/19 15:07:30;;;;;;;;;;;;;;;;;;5097561;28;19999;-71
2024/03/19 15:09:56;;;;;;;;;;;;;;;;;;5079346;28;20360;-71
2024/03/19 15:12:22;;;;;;;;;;;;;;;;;;5078906;28;20013;-71
2024/03/19 15:14:48;;;;;;;;;;;;;;;;;;5096520;28;19912;-70
2024/03/19 15:17:14;;;;;;;;;;;;;;;;;;5078167;28;19908;-70
2024/03/19 15:19:41;;;;;;;;;;;;;;;;;;5095916;28;20086;-70
2024/03/19 15:22:07;;;;;;;;;;;;;;;;;;5096219;28;19919;-70
2024/03/19 15:24:33;;;;;;;;;;;;;;;;;;5096121;28;19912;-70
2024/03/19 15:26:59;;;;;;;;;;;;;;;;;;5077591;28;19908;-70
2024/03/19 15:29:25;;;;;;;;;;;;;;;;;;5078277;28;20328;-70
2024/03/19 15:31:51;;;;;;;;;;;;;;;;;;5097171;28;20305;-70
2024/03/19 15:34:17;;;;;;;;;;;;;;;;;;5096803;28;20457;-70
2024/03/19 15:36:43;;;;;;;;;;;;;;;;;;5079003;28;20001;-70
2024/03/19 15:39:09;;;;;;;;;;;;;;;;;;5078905;28;20022;-72
2024/03/19 15:41:35;;;;;;;;;;;;;;;;;;5096383;28;19908;-71
2024/03/19 15:44:01;;;;;;;;;;;;;;;;;;5096973;28;19912;-69
2024/03/19 15:46:27;;;;;;;;;;;;;;;;;;5095815;28;19908;-70
2024/03/19 15:48:53;;;;;;;;;;;;;;;;;;5096012;28;19908;-70
2024/03/19 15:51:20;;;;;;;;;;;;;;;;;;5096837;28;20387;-70
2024/03/19 15:53:46;;;;;;;;;;;;;;;;;;5096449;28;19999;-70
2024/03/19 15:56:12;;;;;;;;;;;;;;;;;;5096803;28;20371;-70
2024/03/19 15:58:38;;;;;;;;;;;;;;;;;;5078522;28;19908;-70
2024/03/19 16:01:04;;;;;;;;;;;;;;;;;;5095530;28;19909;-71
2024/03/19 16:03:30;;;;;;;;;;;;;;;;;;5096481;28;19908;-71
2024/03/19 16:05:56;;;;;;;;;;;;;;;;;;5095892;28;19908;-70
2024/03/19 16:08:22;;;;;;;;;;;;;;;;;;5077133;28;19998;-71
2024/03/19 16:10:49;;;;;;;;;;;;;;;;;;5096139;28;20356;-72
2024/03/19 16:13:15;;;;;;;;;;;;;;;;;;5095989;28;19916;-73
2024/03/19 16:15:41;;;;;;;;;;;;;;;;;;5095592;28;20002;-71
2024/03/19 16:18:07;;;;;;;;;;;;;;;;;;5095863;28;20321;-71
2024/03/19 16:20:33;;;;;;;;;;;;;;;;;;5096159;28;19915;-70
2024/03/19 16:22:59;;;;;;;;;;;;;;;;;;5093961;28;19910;-70
2024/03/19 16:25:25;;;;;;;;;;;;;;;;;;5075922;28;19908;-71
2024/03/19 16:27:51;;;;;;;;;;;;;;;;;;5095094;28;19919;-70
2024/03/19 16:30:19;;;;;;;;;;;;;;;;;;5095567;28;19908;-70
2024/03/19 16:32:45;;;;;;;;;;;;;;;;;;5095934;28;20364;-70
2024/03/19 16:35:11;;;;;;;;;;;;;;;;;;5095921;28;20017;-70
2024/03/19 16:37:37;;;;;;;;;;;;;;;;;;5095655;28;19931;-70
2024/03/19 16:40:03;;;;;;;;;;;;;;;;;;5095692;28;19912;-70